Time;durP1;ratioP1;P1;durP2;ratioP2;P2;SDS_P1;SDS_P2;PMS_P1;PMS_P2;Temp;Humidity;BMP_temperature;BMP_pressure;BME280_temperature;BME280_humidity;BME280_pressure;Samples;Min_cycle;Max_cycle;Signal;HPM_P1;HPM_P2
2022/03/02 00:00:09;;;;;;;4.88;3.33;;;;;;;;;;4879884;29;20123;-68
2022/03/02 00:02:35;;;;;;;4.93;3.60;;;;;;;;;;4878997;29;20392;-73
2022/03/02 00:05:01;;;;;;;6.03;4.25;;;;;;;;;;4879917;29;20049;-70
2022/03/02 00:07:27;;;;;;;4.90;3.67;;;;;;;;;;4880028;29;20044;-69
2022/03/02 00:09:53;;;;;;;6.40;3.60;;;;;;;;;;4879958;29;20425;-73
2022/03/02 00:12:18;;;;;;;4.10;3.05;;;;;;;;;;4879861;29;20048;-71
2022/03/02 00:14:44;;;;;;;3.97;3.22;;;;;;;;;;4879899;29;20033;-69
2022/03/02 00:17:10;;;;;;;4.07;3.05;;;;;;;;;;4880066;29;20036;-72
2022/03/02 00:19:37;;;;;;;4.68;2.72;;;;;;;;;;4879857;29;20437;-67
2022/03/02 00:22:04;;;;;;;3.35;2.65;;;;;;;;;;4879899;29;20041;-67
2022/03/02 00:24:30;;;;;;;4.22;2.97;;;;;;;;;;4874930;29;20417;-68
2022/03/02 00:26:57;;;;;;;4.20;2.95;;;;;;;;;;4869388;29;20126;-69
2022/03/02 00:29:24;;;;;;;3.72;2.67;;;;;;;;;;4859844;29;20045;-73
2022/03/02 00:31:50;;;;;;;3.72;2.95;;;;;;;;;;4890721;29;20037;-64
2022/03/02 00:34:16;;;;;;;3.67;2.95;;;;;;;;;;4879280;29;20036;-71
2022/03/02 00:36:42;;;;;;;3.55;2.90;;;;;;;;;;4879052;29;20064;-70
2022/03/02 00:39:08;;;;;;;5.18;3.03;;;;;;;;;;4879434;29;20033;-66
2022/03/02 00:41:34;;;;;;;4.50;3.28;;;;;;;;;;4879517;29;20041;-69
2022/03/02 00:44:02;;;;;;;3.50;2.67;;;;;;;;;;4879461;29;20488;-68
2022/03/02 00:46:29;;;;;;;3.72;2.80;;;;;;;;;;4878987;29;20033;-68
2022/03/02 00:48:59;;;;;;;3.47;2.65;;;;;;;;;;4879343;29;20440;-68
2022/03/02 00:51:26;;;;;;;4.80;3.22;;;;;;;;;;4879508;29;20377;-67
2022/03/02 00:53:53;;;;;;;4.22;2.60;;;;;;;;;;4879378;29;20025;-66
2022/03/02 00:56:21;;;;;;;2.95;2.22;;;;;;;;;;4879391;29;20045;-72
2022/03/02 00:58:47;;;;;;;3.33;2.55;;;;;;;;;;4878681;29;20045;-66
2022/03/02 01:01:13;;;;;;;3.42;2.33;;;;;;;;;;4878827;29;20041;-69
2022/03/02 01:03:39;;;;;;;3.55;2.20;;;;;;;;;;4879782;29;20393;-70
2022/03/02 01:06:05;;;;;;;3.20;2.38;;;;;;;;;;4878620;29;20476;-66
2022/03/02 01:08:32;;;;;;;6.00;2.30;;;;;;;;;;4878730;29;20037;-66
2022/03/02 01:10:58;;;;;;;3.30;2.17;;;;;;;;;;4879125;29;20056;-66
2022/03/02 01:13:25;;;;;;;3.60;2.40;;;;;;;;;;4877501;29;20548;-68
2022/03/02 01:15:51;;;;;;;4.90;3.42;;;;;;;;;;4878306;29;20564;-66
2022/03/02 01:18:16;;;;;;;9.40;3.35;;;;;;;;;;4878929;29;20112;-71
2022/03/02 01:20:44;;;;;;;7.38;3.50;;;;;;;;;;4878814;29;20129;-65
2022/03/02 01:23:10;;;;;;;5.82;3.50;;;;;;;;;;4878859;29;20025;-64
2022/03/02 01:25:37;;;;;;;6.13;3.47;;;;;;;;;;4878203;29;20065;-69
2022/03/02 01:28:03;;;;;;;4.80;3.08;;;;;;;;;;4878668;29;20029;-66
2022/03/02 01:30:29;;;;;;;4.90;3.10;;;;;;;;;;4878776;29;20577;-68
2022/03/02 01:32:55;;;;;;;4.20;3.10;;;;;;;;;;4878847;29;20357;-70
2022/03/02 01:35:21;;;;;;;3.97;2.92;;;;;;;;;;4878327;29;20044;-68
2022/03/02 01:37:47;;;;;;;4.68;3.25;;;;;;;;;;4878245;29;20044;-70
2022/03/02 01:40:14;;;;;;;4.60;3.05;;;;;;;;;;4878224;29;20480;-72
2022/03/02 01:42:41;;;;;;;4.57;3.03;;;;;;;;;;4878453;29;20149;-71
2022/03/02 01:45:09;;;;;;;4.57;2.95;;;;;;;;;;4878340;29;20467;-70
2022/03/02 01:47:35;;;;;;;4.45;3.28;;;;;;;;;;4878493;29;20021;-69
2022/03/02 01:50:02;;;;;;;3.88;2.97;;;;;;;;;;4877811;29;20055;-67
2022/03/02 01:52:28;;;;;;;4.47;3.25;;;;;;;;;;4878137;29;20065;-70
2022/03/02 01:54:54;;;;;;;3.83;3.00;;;;;;;;;;4878129;29;20140;-70
2022/03/02 01:57:20;;;;;;;4.20;2.92;;;;;;;;;;4878140;29;20459;-72
2022/03/02 01:59:45;;;;;;;4.93;3.38;;;;;;;;;;4876545;29;20068;-68
2022/03/02 02:02:11;;;;;;;5.13;3.13;;;;;;;;;;4877855;29;20069;-69
2022/03/02 02:04:37;;;;;;;5.32;3.40;;;;;;;;;;4878118;29;20033;-67
2022/03/02 02:07:03;;;;;;;4.85;3.00;;;;;;;;;;4878180;29;20033;-67
2022/03/02 02:09:30;;;;;;;6.03;3.75;;;;;;;;;;4877555;29;20041;-66
2022/03/02 02:11:55;;;;;;;6.45;3.92;;;;;;;;;;4878239;29;20108;-67
2022/03/02 02:14:22;;;;;;;8.88;4.45;;;;;;;;;;4877407;29;20455;-68
2022/03/02 02:16:47;;;;;;;4.13;3.10;;;;;;;;;;4877777;29;20104;-72
2022/03/02 02:19:13;;;;;;;4.55;3.03;;;;;;;;;;4877749;29;20125;-68
2022/03/02 02:21:39;;;;;;;4.50;2.97;;;;;;;;;;4877766;29;20112;-66
2022/03/02 02:24:05;;;;;;;5.30;3.03;;;;;;;;;;4878038;29;20045;-72
2022/03/02 02:26:31;;;;;;;4.85;3.05;;;;;;;;;;4877768;29;20039;-72
2022/03/02 02:28:57;;;;;;;5.90;3.08;;;;;;;;;;4878020;29;20041;-68
2022/03/02 02:31:24;;;;;;;5.18;3.58;;;;;;;;;;4878092;29;20053;-70
2022/03/02 02:33:51;;;;;;;6.38;3.53;;;;;;;;;;4878168;29;20033;-70
2022/03/02 02:36:18;;;;;;;4.32;3.25;;;;;;;;;;4877708;29;20063;-68
2022/03/02 02:38:44;;;;;;;7.85;3.50;;;;;;;;;;4877704;29;20069;-67
2022/03/02 02:41:10;;;;;;;4.82;3.15;;;;;;;;;;4877906;29;20041;-65
2022/03/02 02:43:42;;;;;;;4.85;3.17;;;;;;;;;;4878135;29;20037;-71
2022/03/02 02:46:09;;;;;;;5.50;3.60;;;;;;;;;;4877896;29;20042;-64
2022/03/02 02:48:35;;;;;;;4.63;3.10;;;;;;;;;;4877754;29;20029;-66
2022/03/02 02:51:01;;;;;;;5.55;3.25;;;;;;;;;;4877527;29;20052;-65
2022/03/02 02:53:27;;;;;;;4.57;3.65;;;;;;;;;;4877878;29;20381;-64
2022/03/02 02:55:53;;;;;;;6.15;3.90;;;;;;;;;;4877620;29;20041;-64
2022/03/02 02:58:19;;;;;;;5.70;4.40;;;;;;;;;;4877543;29;20060;-66
2022/03/02 03:00:47;;;;;;;6.78;4.70;;;;;;;;;;4876439;29;20120;-71
2022/03/02 03:03:13;;;;;;;5.97;4.10;;;;;;;;;;4877221;29;20048;-65
2022/03/02 03:05:39;;;;;;;5.80;4.30;;;;;;;;;;4877203;29;20089;-66
2022/03/02 03:08:09;;;;;;;7.15;4.65;;;;;;;;;;4877130;29;20025;-69
2022/03/02 03:10:36;;;;;;;6.18;4.68;;;;;;;;;;4877232;29;20033;-71
2022/03/02 03:13:02;;;;;;;7.57;4.78;;;;;;;;;;4877078;29;20029;-70
2022/03/02 03:15:28;;;;;;;5.70;4.15;;;;;;;;;;4876731;29;20104;-65
2022/03/02 03:17:54;;;;;;;7.88;5.40;;;;;;;;;;4877237;29;20033;-69
2022/03/02 03:20:24;;;;;;;6.30;4.53;;;;;;;;;;4871978;29;20112;-73
2022/03/02 03:22:52;;;;;;;8.82;5.18;;;;;;;;;;4880531;29;20056;-72
2022/03/02 03:25:18;;;;;;;7.90;5.05;;;;;;;;;;4880483;29;20035;-70
2022/03/02 03:27:44;;;;;;;8.00;5.47;;;;;;;;;;4879189;29;20033;-71
2022/03/02 03:30:12;;;;;;;11.23;6.25;;;;;;;;;;4881065;29;20111;-69
2022/03/02 03:32:38;;;;;;;10.20;6.50;;;;;;;;;;4880704;29;20040;-72
2022/03/02 03:35:06;;;;;;;8.45;5.50;;;;;;;;;;4880607;29;20033;-71
2022/03/02 03:37:32;;;;;;;8.30;5.32;;;;;;;;;;4880650;29;20060;-72
2022/03/02 03:39:58;;;;;;;7.82;5.18;;;;;;;;;;4879583;29;20073;-74
2022/03/02 03:42:24;;;;;;;8.23;5.40;;;;;;;;;;4880340;29;20056;-73
2022/03/02 03:44:51;;;;;;;6.82;4.82;;;;;;;;;;4880278;29;20052;-69
2022/03/02 03:47:17;;;;;;;6.13;4.70;;;;;;;;;;4880032;29;20059;-68
2022/03/02 03:49:43;;;;;;;7.03;4.63;;;;;;;;;;4880315;29;20073;-70
2022/03/02 03:52:09;;;;;;;8.27;5.18;;;;;;;;;;4880088;29;20033;-73
2022/03/02 03:54:35;;;;;;;7.22;5.45;;;;;;;;;;4880136;29;20033;-71
2022/03/02 03:57:02;;;;;;;9.23;4.75;;;;;;;;;;4880074;29;20033;-70
2022/03/02 03:59:28;;;;;;;7.47;4.70;;;;;;;;;;4879858;29;20049;-68
2022/03/02 04:01:54;;;;;;;6.57;4.60;;;;;;;;;;4879732;29;20160;-68
2022/03/02 04:04:19;;;;;;;7.75;5.07;;;;;;;;;;4879952;29;20148;-65
2022/03/02 04:06:45;;;;;;;6.63;4.97;;;;;;;;;;4878997;29;20031;-71
2022/03/02 04:09:11;;;;;;;7.55;5.15;;;;;;;;;;4878097;29;20063;-71
2022/03/02 04:11:37;;;;;;;8.63;5.47;;;;;;;;;;4878915;29;20060;-69
2022/03/02 04:14:03;;;;;;;7.50;5.28;;;;;;;;;;4880970;29;20502;-66
2022/03/02 04:16:29;;;;;;;6.22;4.80;;;;;;;;;;4879867;29;20107;-73
2022/03/02 04:18:54;;;;;;;9.82;5.05;;;;;;;;;;4880362;29;20537;-70
2022/03/02 04:21:21;;;;;;;7.13;5.13;;;;;;;;;;4880323;29;20026;-70
2022/03/02 04:23:46;;;;;;;9.40;6.28;;;;;;;;;;4880637;29;20037;-68
2022/03/02 04:26:12;;;;;;;9.15;6.03;;;;;;;;;;4879140;29;20112;-70
2022/03/02 04:28:38;;;;;;;7.47;5.50;;;;;;;;;;4872251;29;20484;-72
2022/03/02 04:31:04;;;;;;;8.73;5.63;;;;;;;;;;4880640;29;20036;-67
2022/03/02 04:33:30;;;;;;;5.63;3.97;;;;;;;;;;4870974;29;20097;-71
2022/03/02 04:35:56;;;;;;;6.13;4.20;;;;;;;;;;4873247;29;20104;-72
2022/03/02 04:38:22;;;;;;;5.32;3.97;;;;;;;;;;4880402;29;20060;-68
2022/03/02 04:40:48;;;;;;;7.03;4.72;;;;;;;;;;4879815;29;20064;-70
2022/03/02 04:43:14;;;;;;;6.35;4.70;;;;;;;;;;4876955;29;20033;-69
2022/03/02 04:45:40;;;;;;;7.55;5.00;;;;;;;;;;4861647;29;20085;-74
2022/03/02 04:48:08;;;;;;;8.88;5.78;;;;;;;;;;4861242;29;20036;-76
2022/03/02 04:50:35;;;;;;;8.27;5.38;;;;;;;;;;4859933;29;20033;-76
2022/03/02 04:53:01;;;;;;;6.43;4.70;;;;;;;;;;4861004;29;20112;-73
2022/03/02 04:55:26;;;;;;;8.52;5.32;;;;;;;;;;4861311;29;20595;-70
2022/03/02 04:57:55;;;;;;;5.63;4.60;;;;;;;;;;4860789;29;20064;-69
2022/03/02 05:00:30;;;;;;;6.68;4.50;;;;;;;;;;4866220;29;20032;-70
2022/03/02 05:02:57;;;;;;;4.82;3.60;;;;;;;;;;4877881;29;20041;-74
2022/03/02 05:05:24;;;;;;;6.53;4.40;;;;;;;;;;4878897;29;20033;-71
2022/03/02 05:07:50;;;;;;;6.00;4.10;;;;;;;;;;4878297;29;20386;-67
2022/03/02 05:10:17;;;;;;;6.63;4.28;;;;;;;;;;4871792;29;20033;-68
2022/03/02 05:12:44;;;;;;;6.22;4.22;;;;;;;;;;4875490;29;20041;-69
2022/03/02 05:15:11;;;;;;;7.68;4.60;;;;;;;;;;4860685;29;20030;-67
2022/03/02 05:17:38;;;;;;;6.55;5.10;;;;;;;;;;4859398;29;20073;-68
2022/03/02 05:20:06;;;;;;;6.40;4.85;;;;;;;;;;4860206;29;20112;-68
2022/03/02 05:22:33;;;;;;;7.32;4.28;;;;;;;;;;4860173;29;20117;-70
2022/03/02 05:24:59;;;;;;;6.57;5.18;;;;;;;;;;4860383;29;20029;-69
2022/03/02 05:27:25;;;;;;;7.43;4.75;;;;;;;;;;4860432;29;20109;-69
2022/03/02 05:29:50;;;;;;;7.72;5.47;;;;;;;;;;4862992;29;20036;-69
2022/03/02 05:32:16;;;;;;;10.82;6.82;;;;;;;;;;4878702;29;20053;-68
2022/03/02 05:34:43;;;;;;;11.23;5.93;;;;;;;;;;4878519;29;20061;-69
2022/03/02 05:37:09;;;;;;;8.35;5.82;;;;;;;;;;4879499;29;20041;-69
2022/03/02 05:39:35;;;;;;;7.22;4.80;;;;;;;;;;4878739;29;20495;-69
2022/03/02 05:42:01;;;;;;;6.82;4.72;;;;;;;;;;4878975;29;20063;-68
2022/03/02 05:44:27;;;;;;;7.97;5.00;;;;;;;;;;4877704;29;20112;-68
2022/03/02 05:46:53;;;;;;;7.43;4.85;;;;;;;;;;4877054;29;20116;-69
2022/03/02 05:49:19;;;;;;;6.68;4.93;;;;;;;;;;4878583;29;20037;-68
2022/03/02 05:51:45;;;;;;;6.97;5.20;;;;;;;;;;4878895;29;20092;-70
2022/03/02 05:54:11;;;;;;;5.78;4.10;;;;;;;;;;4875635;29;20116;-69
2022/03/02 05:56:38;;;;;;;6.97;4.82;;;;;;;;;;4866513;29;20041;-69
2022/03/02 05:59:05;;;;;;;6.05;4.32;;;;;;;;;;4878424;29;20044;-67
2022/03/02 06:01:32;;;;;;;6.72;5.20;;;;;;;;;;4878871;29;20441;-69
2022/03/02 06:03:59;;;;;;;5.95;4.50;;;;;;;;;;4878773;29;20029;-70
2022/03/02 06:06:24;;;;;;;5.90;4.40;;;;;;;;;;4878467;29;20041;-67
2022/03/02 06:08:50;;;;;;;6.25;4.82;;;;;;;;;;4871669;29;20029;-70
2022/03/02 06:11:16;;;;;;;7.28;5.55;;;;;;;;;;4878306;29;20059;-73
2022/03/02 06:13:42;;;;;;;6.97;5.43;;;;;;;;;;4872143;29;20529;-68
2022/03/02 06:16:09;;;;;;;8.38;5.78;;;;;;;;;;4877435;29;20040;-71
2022/03/02 06:18:35;;;;;;;8.50;5.60;;;;;;;;;;4878241;29;20036;-71
2022/03/02 06:21:01;;;;;;;6.15;5.13;;;;;;;;;;4878295;29;20402;-73
2022/03/02 06:23:31;;;;;;;6.25;4.90;;;;;;;;;;4876465;29;20082;-69
2022/03/02 06:25:57;;;;;;;6.25;4.70;;;;;;;;;;4860342;29;20089;-69
2022/03/02 06:28:25;;;;;;;6.85;4.60;;;;;;;;;;4875302;29;20124;-68
2022/03/02 06:30:51;;;;;;;7.05;5.15;;;;;;;;;;4877173;29;20077;-76
2022/03/02 06:33:19;;;;;;;7.85;5.75;;;;;;;;;;4877228;29;20053;-77
2022/03/02 06:35:46;;;;;;;8.40;6.20;;;;;;;;;;4865649;29;20109;-69
2022/03/02 06:38:13;;;;;;;8.15;5.97;;;;;;;;;;4857971;29;20545;-68
2022/03/02 06:40:51;;;;;;;6.32;5.25;;;;;;;;;;4859167;29;20048;-70
2022/03/02 06:43:22;;;;;;;8.65;6.15;;;;;;;;;;4870127;29;20393;-67
2022/03/02 06:45:55;;;;;;;9.15;6.18;;;;;;;;;;4878836;29;20442;-68
2022/03/02 06:48:34;;;;;;;6.90;5.07;;;;;;;;;;4877950;29;20043;-76
2022/03/02 06:51:01;;;;;;;9.27;6.00;;;;;;;;;;4878014;29;20048;-73
2022/03/02 06:53:35;;;;;;;9.10;6.10;;;;;;;;;;4878111;29;20129;-75
2022/03/02 06:56:06;;;;;;;9.77;6.00;;;;;;;;;;4879112;29;20033;-76
2022/03/02 06:58:41;;;;;;;7.80;5.63;;;;;;;;;;4881562;29;20068;-75
2022/03/02 07:01:13;;;;;;;7.80;6.43;;;;;;;;;;4881451;29;20124;-71
2022/03/02 07:03:50;;;;;;;8.73;6.40;;;;;;;;;;4868237;29;20032;-77
2022/03/02 07:06:17;;;;;;;8.30;7.30;;;;;;;;;;4862903;29;20039;-74
2022/03/02 07:08:48;;;;;;;10.10;8.18;;;;;;;;;;4861923;29;20025;-79
2022/03/02 07:11:17;;;;;;;12.23;7.25;;;;;;;;;;4862745;29;20048;-76
2022/03/02 07:13:45;;;;;;;10.02;6.93;;;;;;;;;;4862946;29;20381;-77
2022/03/02 07:16:16;;;;;;;7.70;6.38;;;;;;;;;;4862501;29;20430;-76
2022/03/02 07:18:42;;;;;;;9.70;6.30;;;;;;;;;;4862934;29;20086;-69
2022/03/02 07:21:15;;;;;;;8.38;6.72;;;;;;;;;;4862751;29;20036;-69
2022/03/02 07:24:22;;;;;;;8.93;7.18;;;;;;;;;;4862701;29;20034;-68
2022/03/02 07:26:56;;;;;;;9.98;6.63;;;;;;;;;;4860438;29;20053;-70
2022/03/02 07:29:26;;;;;;;19.52;8.02;;;;;;;;;;4873762;29;20132;-70
2022/03/02 07:31:57;;;;;;;9.38;7.15;;;;;;;;;;4867881;29;20109;-69
2022/03/02 07:34:25;;;;;;;10.35;5.90;;;;;;;;;;4863315;29;20056;-69
2022/03/02 07:36:51;;;;;;;12.63;7.32;;;;;;;;;;4863266;29;20089;-68
2022/03/02 07:39:17;;;;;;;12.40;8.30;;;;;;;;;;4863216;29;20045;-71
2022/03/02 07:41:43;;;;;;;11.10;6.90;;;;;;;;;;4862429;29;20481;-68
2022/03/02 07:44:10;;;;;;;8.40;5.97;;;;;;;;;;4862658;29;20048;-68
2022/03/02 07:46:36;;;;;;;18.42;7.55;;;;;;;;;;4861297;29;20029;-69
2022/03/02 07:49:04;;;;;;;9.82;7.20;;;;;;;;;;4862137;29;20074;-74
2022/03/02 07:51:33;;;;;;;10.57;6.22;;;;;;;;;;4860981;29;20181;-68
2022/03/02 07:54:01;;;;;;;9.18;7.93;;;;;;;;;;4861996;29;20046;-69
2022/03/02 07:56:29;;;;;;;13.63;7.25;;;;;;;;;;4862132;29;20128;-71
2022/03/02 07:59:05;;;;;;;18.83;7.38;;;;;;;;;;4861932;29;20054;-68
2022/03/02 08:01:36;;;;;;;19.08;7.55;;;;;;;;;;4862131;29;20068;-69
2022/03/02 08:04:07;;;;;;;14.60;7.22;;;;;;;;;;4862031;29;20045;-68
2022/03/02 08:06:39;;;;;;;9.18;6.20;;;;;;;;;;4862039;29;20034;-72
2022/03/02 08:09:08;;;;;;;12.20;6.65;;;;;;;;;;4861358;29;20046;-71
2022/03/02 08:11:37;;;;;;;12.95;6.60;;;;;;;;;;4861827;29;20040;-70
2022/03/02 08:14:04;;;;;;;11.05;5.40;;;;;;;;;;4861228;29;20413;-70
2022/03/02 08:16:32;;;;;;;11.88;7.15;;;;;;;;;;4875473;29;20022;-70
2022/03/02 08:19:01;;;;;;;11.00;6.05;;;;;;;;;;4880196;29;20037;-72
2022/03/02 08:21:30;;;;;;;9.52;4.95;;;;;;;;;;4880484;29;20017;-72
2022/03/02 08:23:58;;;;;;;10.30;5.50;;;;;;;;;;4880339;29;20037;-71
2022/03/02 08:26:25;;;;;;;9.30;6.05;;;;;;;;;;4880175;29;20025;-71
2022/03/02 08:28:56;;;;;;;9.38;6.65;;;;;;;;;;4879881;29;20045;-72
2022/03/02 08:31:24;;;;;;;11.80;4.75;;;;;;;;;;4880044;29;20348;-71
2022/03/02 08:33:50;;;;;;;7.65;4.80;;;;;;;;;;4879874;29;20025;-69
2022/03/02 08:36:21;;;;;;;8.75;5.20;;;;;;;;;;4879865;29;20076;-74
2022/03/02 08:38:52;;;;;;;10.63;5.38;;;;;;;;;;4880059;29;20049;-67
2022/03/02 08:41:20;;;;;;;7.10;4.72;;;;;;;;;;4880017;29;20048;-71
2022/03/02 08:43:47;;;;;;;8.70;5.00;;;;;;;;;;4879878;29;20037;-73
2022/03/02 08:46:14;;;;;;;9.57;4.68;;;;;;;;;;4878555;29;20040;-70
2022/03/02 08:48:41;;;;;;;9.18;4.93;;;;;;;;;;4879671;29;20033;-73
2022/03/02 08:51:07;;;;;;;5.95;4.93;;;;;;;;;;4879365;29;20392;-78
2022/03/02 08:53:33;;;;;;;9.43;4.45;;;;;;;;;;4871542;29;20587;-77
2022/03/02 08:56:03;;;;;;;7.85;3.95;;;;;;;;;;4860987;29;20041;-75
2022/03/02 08:58:29;;;;;;;7.72;4.20;;;;;;;;;;4860617;29;20505;-77
2022/03/02 09:00:58;;;;;;;7.45;3.90;;;;;;;;;;4860585;29;20113;-73
2022/03/02 09:03:25;;;;;;;11.10;5.03;;;;;;;;;;4860515;29;20506;-76
2022/03/02 09:05:52;;;;;;;7.05;5.13;;;;;;;;;;4860845;29;20105;-75
2022/03/02 09:08:18;;;;;;;6.07;3.95;;;;;;;;;;4861001;29;20030;-73
2022/03/02 09:10:45;;;;;;;11.43;5.65;;;;;;;;;;4860465;29;20065;-70
2022/03/02 09:13:12;;;;;;;8.32;4.80;;;;;;;;;;4872987;29;20498;-76
2022/03/02 09:15:39;;;;;;;6.45;4.60;;;;;;;;;;4879024;29;20068;-71
2022/03/02 09:18:06;;;;;;;9.75;4.22;;;;;;;;;;4873983;29;20384;-74
2022/03/02 09:20:33;;;;;;;10.60;3.97;;;;;;;;;;4863843;29;20037;-74
2022/03/02 09:23:04;;;;;;;8.88;4.65;;;;;;;;;;4860669;29;20040;-70
2022/03/02 09:25:31;;;;;;;6.55;4.88;;;;;;;;;;4860764;29;20033;-72
2022/03/02 09:27:57;;;;;;;7.03;4.63;;;;;;;;;;4860412;29;20029;-72
2022/03/02 09:30:24;;;;;;;4.75;3.60;;;;;;;;;;4860388;29;20044;-73
2022/03/02 09:32:53;;;;;;;5.82;3.65;;;;;;;;;;4860283;29;20366;-72
2022/03/02 09:35:20;;;;;;;6.82;4.50;;;;;;;;;;4863911;29;20548;-72
2022/03/02 09:37:53;;;;;;;7.80;4.75;;;;;;;;;;4873883;29;20099;-70
2022/03/02 09:40:27;;;;;;;7.23;3.90;;;;;;;;;;4878427;29;20123;-73
2022/03/02 09:43:07;;;;;;;6.63;3.78;;;;;;;;;;4878610;29;20280;-74
2022/03/02 09:45:34;;;;;;;7.20;4.03;;;;;;;;;;4878466;29;20052;-72
2022/03/02 09:48:03;;;;;;;6.82;4.45;;;;;;;;;;4853186;29;20033;-74
2022/03/02 09:50:33;;;;;;;6.82;4.45;;;;;;;;;;4866751;29;20072;-72
2022/03/02 09:53:13;;;;;;;5.65;3.70;;;;;;;;;;4873983;29;20041;-71
2022/03/02 09:55:40;;;;;;;5.78;3.53;;;;;;;;;;4860179;29;20500;-73
2022/03/02 09:58:06;;;;;;;5.25;3.50;;;;;;;;;;4860353;29;20046;-74
2022/03/02 10:00:35;;;;;;;5.32;4.00;;;;;;;;;;4860085;29;20109;-73
2022/03/02 10:03:01;;;;;;;5.78;4.30;;;;;;;;;;4859669;29;20038;-71
2022/03/02 10:05:32;;;;;;;7.18;4.50;;;;;;;;;;4869121;29;20039;-72
2022/03/02 10:08:03;;;;;;;7.80;4.93;;;;;;;;;;4868722;29;20192;-69
2022/03/02 10:10:33;;;;;;;6.07;4.18;;;;;;;;;;4878531;29;20041;-72
2022/03/02 10:13:08;;;;;;;5.63;4.47;;;;;;;;;;4877228;29;20056;-74
2022/03/02 10:15:36;;;;;;;5.40;4.45;;;;;;;;;;4876678;29;20476;-74
2022/03/02 10:18:05;;;;;;;6.43;4.70;;;;;;;;;;4878443;29;20213;-72
2022/03/02 10:20:34;;;;;;;5.60;4.30;;;;;;;;;;4878361;29;20484;-72
2022/03/02 10:23:23;;;;;;;6.78;3.88;;;;;;;;;;4878021;29;20017;-70
2022/03/02 10:26:03;;;;;;;5.95;3.67;;;;;;;;;;4877826;29;20037;-68
2022/03/02 10:28:33;;;;;;;11.07;4.70;;;;;;;;;;4877672;29;20092;-70
2022/03/02 10:31:22;;;;;;;7.53;4.13;;;;;;;;;;4879059;29;20397;-74
2022/03/02 10:33:54;;;;;;;5.03;3.83;;;;;;;;;;4878945;29;20506;-76
2022/03/02 10:36:24;;;;;;;5.45;4.25;;;;;;;;;;4881347;29;20041;-68
2022/03/02 10:38:59;;;;;;;5.57;3.60;;;;;;;;;;4881386;29;20032;-70
2022/03/02 10:41:27;;;;;;;6.18;4.68;;;;;;;;;;4881245;29;20548;-67
2022/03/02 10:43:59;;;;;;;8.95;4.30;;;;;;;;;;4881903;29;20036;-73
2022/03/02 10:46:26;;;;;;;5.53;4.25;;;;;;;;;;4880989;29;20074;-75
2022/03/02 10:49:05;;;;;;;10.40;5.55;;;;;;;;;;4872915;29;20056;-81
2022/03/02 10:51:34;;;;;;;5.78;4.03;;;;;;;;;;4869557;29;20033;-75
2022/03/02 10:54:05;;;;;;;4.25;3.40;;;;;;;;;;4900487;29;20084;-80
2022/03/02 10:56:38;;;;;;;6.18;4.05;;;;;;;;;;4898885;29;20111;-76
2022/03/02 10:59:11;;;;;;;5.30;3.60;;;;;;;;;;4892442;29;20041;-77
2022/03/02 11:01:38;;;;;;;10.18;4.15;;;;;;;;;;4883755;29;20056;-69
2022/03/02 11:04:07;;;;;;;6.45;4.45;;;;;;;;;;4891055;29;20067;-70
2022/03/02 11:06:33;;;;;;;5.32;4.03;;;;;;;;;;4899922;29;20037;-68
2022/03/02 11:09:00;;;;;;;7.45;3.70;;;;;;;;;;4899651;29;20127;-73
2022/03/02 11:11:26;;;;;;;13.55;5.88;;;;;;;;;;4899552;29;20029;-73
2022/03/02 11:13:54;;;;;;;5.82;3.78;;;;;;;;;;4899665;29;20055;-75
2022/03/02 11:16:22;;;;;;;4.22;3.30;;;;;;;;;;4899530;29;20070;-71
2022/03/02 11:18:51;;;;;;;5.88;3.97;;;;;;;;;;4899992;29;20088;-72
2022/03/02 11:21:21;;;;;;;9.93;4.20;;;;;;;;;;4899553;29;20492;-77
2022/03/02 11:23:50;;;;;;;6.47;3.63;;;;;;;;;;4899893;29;20041;-73
2022/03/02 11:26:26;;;;;;;5.18;3.67;;;;;;;;;;4899702;29;20025;-68
2022/03/02 11:28:54;;;;;;;6.65;3.88;;;;;;;;;;4899647;29;20089;-73
2022/03/02 11:31:31;;;;;;;6.43;3.78;;;;;;;;;;4899511;29;20495;-70
2022/03/02 11:34:18;;;;;;;5.28;3.88;;;;;;;;;;4889526;29;20421;-69
2022/03/02 11:36:48;;;;;;;5.57;3.67;;;;;;;;;;4880841;29;20416;-70
2022/03/02 11:39:17;;;;;;;6.95;3.65;;;;;;;;;;4881153;29;20063;-71
2022/03/02 11:41:45;;;;;;;7.13;4.55;;;;;;;;;;4880792;29;20392;-71
2022/03/02 11:44:31;;;;;;;8.00;4.50;;;;;;;;;;4879985;29;20103;-69
2022/03/02 11:46:59;;;;;;;13.77;5.95;;;;;;;;;;4880593;29;20037;-71
2022/03/02 11:49:44;;;;;;;11.55;5.38;;;;;;;;;;4880564;29;20043;-70
2022/03/02 11:52:14;;;;;;;13.43;5.35;;;;;;;;;;4881387;29;20037;-72
2022/03/02 11:54:48;;;;;;;7.32;5.45;;;;;;;;;;4880333;29;20120;-71
2022/03/02 11:57:16;;;;;;;7.15;5.03;;;;;;;;;;4880014;29;20037;-75
2022/03/02 11:59:42;;;;;;;13.35;6.45;;;;;;;;;;4880430;29;20053;-70
2022/03/02 12:02:19;;;;;;;15.27;6.32;;;;;;;;;;4898403;29;20037;-71
2022/03/02 12:05:00;;;;;;;16.60;6.38;;;;;;;;;;4898793;29;20041;-72
2022/03/02 12:07:57;;;;;;;9.30;5.85;;;;;;;;;;4899264;29;20032;-71
2022/03/02 12:10:29;;;;;;;8.73;6.05;;;;;;;;;;4897179;29;20041;-69
2022/03/02 12:12:56;;;;;;;6.88;5.47;;;;;;;;;;4898716;29;20029;-72
2022/03/02 12:15:25;;;;;;;9.00;5.63;;;;;;;;;;4898413;29;20458;-73
2022/03/02 12:17:52;;;;;;;7.95;5.80;;;;;;;;;;4898901;29;20457;-73
2022/03/02 12:20:20;;;;;;;20.10;7.60;;;;;;;;;;4897555;29;20041;-74
2022/03/02 12:22:57;;;;;;;10.85;6.68;;;;;;;;;;4898628;29;20032;-72
2022/03/02 12:25:25;;;;;;;9.60;6.63;;;;;;;;;;4898466;29;20047;-72
2022/03/02 12:28:03;;;;;;;8.60;6.13;;;;;;;;;;4897056;29;20476;-71
2022/03/02 12:30:31;;;;;;;12.02;6.85;;;;;;;;;;4898633;29;20037;-70
2022/03/02 12:32:57;;;;;;;13.85;7.00;;;;;;;;;;4897272;29;20040;-71
2022/03/02 12:35:23;;;;;;;9.52;6.60;;;;;;;;;;4898457;29;20047;-70
2022/03/02 12:37:52;;;;;;;15.30;7.25;;;;;;;;;;4898468;29;20056;-74
2022/03/02 12:40:18;;;;;;;17.90;7.22;;;;;;;;;;4897940;29;20055;-70
2022/03/02 12:42:44;;;;;;;16.17;7.70;;;;;;;;;;4898698;29;20028;-70
2022/03/02 12:45:11;;;;;;;12.60;7.60;;;;;;;;;;4898584;29;20075;-71
2022/03/02 12:47:39;;;;;;;11.32;6.78;;;;;;;;;;4898547;29;20064;-74
2022/03/02 12:50:08;;;;;;;11.20;7.80;;;;;;;;;;4898605;29;20123;-76
2022/03/02 12:52:34;;;;;;;11.23;7.88;;;;;;;;;;4898492;29;20029;-72
2022/03/02 12:55:02;;;;;;;12.45;8.02;;;;;;;;;;4898132;29;20437;-73
2022/03/02 12:57:30;;;;;;;13.93;6.82;;;;;;;;;;4898277;29;20399;-71
2022/03/02 12:59:58;;;;;;;17.00;8.25;;;;;;;;;;4898124;29;20068;-75
2022/03/02 13:02:33;;;;;;;14.75;7.60;;;;;;;;;;4897509;29;20041;-73
2022/03/02 13:05:09;;;;;;;17.33;8.70;;;;;;;;;;4897705;29;20504;-76
2022/03/02 13:07:35;;;;;;;16.20;8.10;;;;;;;;;;4898159;29;20048;-78
2022/03/02 13:10:10;;;;;;;10.90;7.45;;;;;;;;;;4898606;29;20377;-72
2022/03/02 13:12:40;;;;;;;10.93;7.03;;;;;;;;;;4897941;29;20073;-75
2022/03/02 13:15:18;;;;;;;12.77;7.40;;;;;;;;;;4897791;29;20116;-72
2022/03/02 13:17:45;;;;;;;14.30;7.78;;;;;;;;;;4898034;29;20114;-80
2022/03/02 13:20:19;;;;;;;24.98;7.75;;;;;;;;;;4897281;29;20032;-75
2022/03/02 13:22:50;;;;;;;13.95;6.88;;;;;;;;;;4897958;29;20508;-73
2022/03/02 13:25:16;;;;;;;12.18;6.25;;;;;;;;;;4898191;29;20052;-78
2022/03/02 13:28:09;;;;;;;10.20;6.63;;;;;;;;;;4898241;29;20388;-75
2022/03/02 13:30:37;;;;;;;11.48;7.18;;;;;;;;;;4898157;29;20143;-78
2022/03/02 13:33:05;;;;;;;10.30;7.20;;;;;;;;;;4898303;29;20076;-72
2022/03/02 13:35:33;;;;;;;17.38;7.43;;;;;;;;;;4898032;29;20041;-76
2022/03/02 13:38:10;;;;;;;19.02;8.32;;;;;;;;;;4897567;29;20137;-77
2022/03/02 13:40:45;;;;;;;9.57;7.63;;;;;;;;;;4897723;29;20040;-77
2022/03/02 13:43:11;;;;;;;18.70;8.68;;;;;;;;;;4897947;29;20118;-74
2022/03/02 13:45:45;;;;;;;15.43;7.03;;;;;;;;;;4897614;29;20064;-75
2022/03/02 13:48:22;;;;;;;9.23;6.75;;;;;;;;;;4897949;29;20047;-81
2022/03/02 13:50:59;;;;;;;15.90;8.23;;;;;;;;;;4897595;29;20073;-75
2022/03/02 13:53:39;;;;;;;11.10;8.07;;;;;;;;;;4896941;29;20034;-74
2022/03/02 13:56:10;;;;;;;13.07;7.30;;;;;;;;;;4897580;29;20511;-76
2022/03/02 13:58:38;;;;;;;13.48;9.07;;;;;;;;;;4897532;29;20064;-75
2022/03/02 14:01:29;;;;;;;14.38;7.18;;;;;;;;;;4897551;29;20036;-78
2022/03/02 14:04:12;;;;;;;14.85;7.95;;;;;;;;;;4897660;29;20488;-74
2022/03/02 14:06:40;;;;;;;11.18;7.80;;;;;;;;;;4896278;29;20131;-75
2022/03/02 14:09:09;;;;;;;8.35;6.72;;;;;;;;;;4897618;29;20507;-74
2022/03/02 14:11:39;;;;;;;11.73;7.22;;;;;;;;;;4897608;29;20032;-77
2022/03/02 14:14:14;;;;;;;10.02;6.55;;;;;;;;;;4897447;29;20056;-82
2022/03/02 14:16:55;;;;;;;11.15;7.53;;;;;;;;;;4896845;29;20037;-77
2022/03/02 14:19:21;;;;;;;10.25;7.28;;;;;;;;;;4897680;29;20040;-75
2022/03/02 14:22:02;;;;;;;11.77;7.57;;;;;;;;;;4897386;29;20028;-73
2022/03/02 14:24:32;;;;;;;11.35;7.40;;;;;;;;;;4896892;29;20048;-76
2022/03/02 14:27:20;;;;;;;10.05;6.65;;;;;;;;;;4897353;29;20025;-70
2022/03/02 14:30:07;;;;;;;10.65;7.68;;;;;;;;;;4896593;29;20064;-74
2022/03/02 14:32:36;;;;;;;13.20;7.75;;;;;;;;;;4897275;29;20497;-74
2022/03/02 14:35:13;;;;;;;12.38;7.13;;;;;;;;;;4897311;29;20036;-76
2022/03/02 14:37:47;;;;;;;14.93;8.32;;;;;;;;;;4897165;29;20029;-74
2022/03/02 14:40:24;;;;;;;12.35;7.85;;;;;;;;;;4897228;29;20032;-72
2022/03/02 14:42:52;;;;;;;11.88;6.65;;;;;;;;;;4896571;29;20033;-73
2022/03/02 14:45:36;;;;;;;14.90;8.27;;;;;;;;;;4897104;29;20029;-75
2022/03/02 14:48:14;;;;;;;10.95;8.00;;;;;;;;;;4897263;29;20369;-72
2022/03/02 14:50:48;;;;;;;19.50;7.82;;;;;;;;;;4897494;29;20051;-74